Time;durP1;ratioP1;P1;durP2;ratioP2;P2;SDS_P1;SDS_P2;PMS_P1;PMS_P2;Temp;Humidity;BMP_temperature;BMP_pressure;BME280_temperature;BME280_humidity;BME280_pressure;Samples;Min_cycle;Max_cycle;Signal;HPM_P1;HPM_P2
2023/04/07 00:01:07;;;;;;;5.37;4.07;;;10.00;99.90;;;;;;5076181;28;20214;-76
2023/04/07 00:03:37;;;;;;;4.47;3.87;;;10.00;99.90;;;;;;5079715;28;20182;-74
2023/04/07 00:06:05;;;;;;;4.60;4.07;;;10.00;99.90;;;;;;5088810;28;20183;-78
2023/04/07 00:08:36;;;;;;;6.37;4.33;;;10.00;99.90;;;;;;5078920;28;20211;-77
2023/04/07 00:11:01;;;;;;;5.60;4.35;;;10.00;99.90;;;;;;5085653;28;20263;-80
2023/04/07 00:13:29;;;;;;;6.37;4.57;;;10.00;99.90;;;;;;5089168;28;20267;-80
2023/04/07 00:15:54;;;;;;;4.97;4.47;;;10.00;99.90;;;;;;5079193;28;20176;-79
2023/04/07 00:18:23;;;;;;;4.97;4.35;;;10.00;99.90;;;;;;5080470;28;20184;-77
2023/04/07 00:20:50;;;;;;;5.87;4.53;;;10.00;99.90;;;;;;5088473;28;20180;-79
2023/04/07 00:23:16;;;;;;;6.57;4.78;;;10.00;99.90;;;;;;5112711;28;20168;-79
2023/04/07 00:25:42;;;;;;;5.77;4.47;;;10.00;99.90;;;;;;5112377;28;20412;-77
2023/04/07 00:28:10;;;;;;;6.10;4.40;;;10.00;99.90;;;;;;5079056;28;20207;-79
2023/04/07 00:30:40;;;;;;;4.80;4.07;;;10.00;99.90;;;;;;5072875;28;20185;-78
2023/04/07 00:33:06;;;;;;;4.77;4.20;;;10.00;99.90;;;;;;5078850;28;20168;-77
2023/04/07 00:35:31;;;;;;;5.33;4.60;;;10.00;99.90;;;;;;5086779;28;20210;-79
2023/04/07 00:38:02;;;;;;;4.75;4.25;;;10.00;99.90;;;;;;5095209;28;20259;-77
2023/04/07 00:40:32;;;;;;;6.37;4.50;;;10.00;99.90;;;;;;5103576;28;20176;-77
2023/04/07 00:43:00;;;;;;;5.80;4.30;;;10.00;99.90;;;;;;5069890;28;20199;-77
2023/04/07 00:45:26;;;;;;;5.82;4.43;;;10.00;99.90;;;;;;5076570;28;20295;-80
2023/04/07 00:47:51;;;;;;;4.53;3.95;;;10.00;99.90;;;;;;5086745;28;20278;-77
2023/04/07 00:50:18;;;;;;;4.57;3.77;;;10.00;99.90;;;;;;5067219;28;20192;-79
2023/04/07 00:52:44;;;;;;;5.32;4.35;;;10.00;99.90;;;;;;5079681;28;20172;-79
2023/04/07 00:55:10;;;;;;;5.33;4.07;;;10.00;99.90;;;;;;5082843;28;20481;-79
2023/04/07 00:57:38;;;;;;;4.70;3.97;;;10.00;99.90;;;;;;5077667;28;20206;-75
2023/04/07 01:00:05;;;;;;;4.50;3.83;;;10.00;99.90;;;;;;5076760;28;20176;-79
2023/04/07 01:02:51;;;;;;;5.20;4.13;;;10.00;99.90;;;;;;5095667;27;20175;-75
2023/04/07 01:05:32;;;;;;;4.30;3.60;;;10.00;99.90;;;;;;5066430;28;20223;-79
2023/04/07 01:07:58;;;;;;;4.93;3.87;;;10.00;99.90;;;;;;5072434;28;20214;-79
2023/04/07 01:10:34;;;;;;;5.00;4.37;;;10.00;99.90;;;;;;5088129;28;20192;-64
2023/04/07 01:13:21;;;;;;;5.67;4.23;;;10.00;99.90;;;;;;5094971;28;20233;-63
2023/04/07 01:15:51;;;;;;;5.00;4.07;;;10.00;99.90;;;;;;5089362;28;20214;-68
2023/04/07 01:18:25;;;;;;;4.53;4.07;;;10.00;99.90;;;;;;5077653;28;20346;-79
2023/04/07 01:20:55;;;;;;;5.37;4.10;;;10.00;99.90;;;;;;5075948;28;20267;-79
2023/04/07 01:23:37;;;;;;;4.90;4.17;;;10.00;99.90;;;;;;5089004;28;20180;-79
2023/04/07 01:26:06;;;;;;;4.90;4.13;;;10.00;99.90;;;;;;5081080;28;20215;-78
2023/04/07 01:28:40;;;;;;;6.53;5.33;;;10.00;99.90;;;;;;5077813;28;20215;-76
2023/04/07 01:31:13;;;;;;;6.03;4.83;;;10.00;99.90;;;;;;5109354;27;20180;-75
2023/04/07 01:33:40;;;;;;;5.70;4.20;;;10.00;99.90;;;;;;5063699;28;20196;-75
2023/04/07 01:36:09;;;;;;;4.03;3.63;;;9.90;99.90;;;;;;5064568;28;20195;-76
2023/04/07 01:38:38;;;;;;;4.70;3.27;;;9.80;99.90;;;;;;5068661;28;20176;-76
2023/04/07 01:41:06;;;;;;;3.43;3.13;;;9.80;99.90;;;;;;5068958;28;20192;-76
2023/04/07 01:43:35;;;;;;;3.73;3.03;;;9.80;99.90;;;;;;5095456;28;20180;-76
2023/04/07 01:46:03;;;;;;;3.67;3.20;;;9.90;99.90;;;;;;5084130;28;20188;-78
2023/04/07 01:48:35;;;;;;;3.63;3.03;;;9.80;99.90;;;;;;5083036;28;20207;-76
2023/04/07 01:51:06;;;;;;;4.00;3.27;;;9.80;99.90;;;;;;5086817;28;20164;-78
2023/04/07 01:53:36;;;;;;;3.47;3.17;;;9.80;99.90;;;;;;5073483;28;20164;-76
2023/04/07 01:56:02;;;;;;;5.23;3.40;;;9.80;99.90;;;;;;5096943;28;20215;-76
2023/04/07 01:58:28;;;;;;;4.00;3.30;;;9.80;99.90;;;;;;5105401;28;20183;-77
2023/04/07 02:00:56;;;;;;;3.33;3.03;;;9.80;99.90;;;;;;5077903;28;20263;-76
2023/04/07 02:03:43;;;;;;;3.40;3.00;;;9.80;99.90;;;;;;5067293;28;20234;-74
2023/04/07 02:06:14;;;;;;;3.07;2.67;;;9.80;99.90;;;;;;5091867;28;20255;-70
2023/04/07 02:08:47;;;;;;;3.57;2.93;;;9.90;99.90;;;;;;5085801;28;20227;-75
2023/04/07 02:11:16;;;;;;;5.20;3.43;;;9.80;99.90;;;;;;5102124;28;20215;-76
2023/04/07 02:13:45;;;;;;;3.53;3.03;;;9.90;99.90;;;;;;5083720;28;20183;-75
2023/04/07 02:16:11;;;;;;;3.37;2.80;;;9.90;99.90;;;;;;5076424;28;20244;-75
2023/04/07 02:18:38;;;;;;;3.47;3.17;;;9.90;99.90;;;;;;5080072;28;20176;-76
2023/04/07 02:21:07;;;;;;;3.83;3.33;;;10.00;99.90;;;;;;5079143;28;20208;-75
2023/04/07 02:23:34;;;;;;;4.03;3.43;;;9.90;99.90;;;;;;5099508;28;20250;-75
2023/04/07 02:26:05;;;;;;;5.13;3.20;;;9.90;99.90;;;;;;5076575;28;20206;-75
2023/04/07 02:28:30;;;;;;;4.40;3.50;;;10.00;99.90;;;;;;5084009;28;20188;-76
2023/04/07 02:30:56;;;;;;;4.73;4.10;;;10.00;99.90;;;;;;5085541;28;20178;-74
2023/04/07 02:33:24;;;;;;;5.40;4.10;;;10.00;99.90;;;;;;5089323;28;20168;-72
2023/04/07 02:35:52;;;;;;;4.80;4.27;;;10.00;99.90;;;;;;5082181;28;20172;-73
2023/04/07 02:38:20;;;;;;;5.43;4.73;;;10.10;99.90;;;;;;5093911;28;20474;-73
2023/04/07 02:40:45;;;;;;;5.60;4.88;;;10.10;99.90;;;;;;5096089;28;20213;-73
2023/04/07 02:43:11;;;;;;;6.30;5.10;;;10.10;99.90;;;;;;5095150;28;20173;-73
2023/04/07 02:45:39;;;;;;;6.60;5.70;;;10.20;99.90;;;;;;5104071;28;20196;-72
2023/04/07 02:48:05;;;;;;;6.73;6.03;;;10.20;99.90;;;;;;5073793;28;20197;-73
2023/04/07 02:50:30;;;;;;;7.93;5.73;;;10.20;99.90;;;;;;5080366;28;20176;-70
2023/04/07 02:52:59;;;;;;;8.93;7.00;;;10.20;99.90;;;;;;5073406;28;20201;-72
2023/04/07 02:55:24;;;;;;;8.33;6.33;;;10.20;99.90;;;;;;5081156;28;20228;-72
2023/04/07 02:57:50;;;;;;;9.57;7.00;;;10.30;99.90;;;;;;5061349;28;20192;-68
2023/04/07 03:00:20;;;;;;;7.90;6.20;;;10.30;99.90;;;;;;5061895;28;20169;-70
2023/04/07 03:02:46;;;;;;;8.88;6.80;;;10.30;99.90;;;;;;5080192;28;20172;-70
2023/04/07 03:05:11;;;;;;;8.17;6.50;;;10.30;99.90;;;;;;5067182;28;20192;-69
2023/04/07 03:07:37;;;;;;;9.07;6.97;;;10.40;99.90;;;;;;5086266;28;20254;-69
2023/04/07 03:10:03;;;;;;;10.30;7.45;;;10.30;99.90;;;;;;5080660;28;20265;-66
2023/04/07 03:12:31;;;;;;;9.07;7.43;;;10.30;99.90;;;;;;5079986;28;20192;-65
2023/04/07 03:14:58;;;;;;;10.03;7.40;;;10.20;99.90;;;;;;5080496;28;20176;-66
2023/04/07 03:17:26;;;;;;;10.63;8.10;;;10.30;99.90;;;;;;5065052;28;20180;-65
2023/04/07 03:19:54;;;;;;;10.20;7.87;;;10.30;99.90;;;;;;5077392;28;20287;-66
2023/04/07 03:22:20;;;;;;;12.23;8.63;;;10.30;99.90;;;;;;5063058;28;20234;-66
2023/04/07 03:24:45;;;;;;;10.10;7.80;;;10.20;99.90;;;;;;5082060;28;20200;-66
2023/04/07 03:27:11;;;;;;;13.47;8.53;;;10.20;99.90;;;;;;5100909;28;20203;-66
2023/04/07 03:29:39;;;;;;;11.93;8.50;;;10.30;99.90;;;;;;5072081;28;20197;-66
2023/04/07 03:32:06;;;;;;;12.07;8.80;;;10.20;99.90;;;;;;5074949;28;20180;-66
2023/04/07 03:34:32;;;;;;;11.50;8.73;;;10.20;99.90;;;;;;5068502;28;20204;-66
2023/04/07 03:36:58;;;;;;;11.63;8.38;;;10.20;99.90;;;;;;5077221;28;20194;-65
2023/04/07 03:39:23;;;;;;;11.73;8.57;;;10.20;99.90;;;;;;5074813;28;20187;-66
2023/04/07 03:41:51;;;;;;;12.50;9.20;;;10.20;99.90;;;;;;5066210;28;20501;-65
2023/04/07 03:44:17;;;;;;;12.83;9.03;;;10.20;99.90;;;;;;5104540;27;20171;-66
2023/04/07 03:46:45;;;;;;;12.10;9.33;;;10.20;99.90;;;;;;5067077;28;20180;-67
2023/04/07 03:49:11;;;;;;;12.07;8.90;;;10.20;99.90;;;;;;5072751;28;20204;-68
2023/04/07 03:51:39;;;;;;;13.10;9.40;;;10.20;99.90;;;;;;5093577;28;20175;-67
2023/04/07 03:54:05;;;;;;;13.57;9.13;;;10.10;99.90;;;;;;5087301;28;20187;-67
2023/04/07 03:56:30;;;;;;;14.32;9.27;;;10.20;99.90;;;;;;5089388;28;20169;-69
2023/04/07 03:58:56;;;;;;;12.60;9.23;;;10.20;99.90;;;;;;5076702;28;20206;-69
2023/04/07 04:01:26;;;;;;;12.98;9.38;;;10.20;99.90;;;;;;5075505;28;20183;-69
2023/04/07 04:03:54;;;;;;;13.20;9.87;;;10.10;99.90;;;;;;5065683;28;20177;-70
2023/04/07 04:06:22;;;;;;;12.87;9.63;;;10.10;99.90;;;;;;5077272;28;20187;-70
2023/04/07 04:08:48;;;;;;;13.63;9.60;;;10.10;99.90;;;;;;5088256;28;20195;-69
2023/04/07 04:11:14;;;;;;;13.98;9.82;;;10.10;99.90;;;;;;5079491;28;20192;-68
2023/04/07 04:13:42;;;;;;;13.13;9.30;;;10.10;99.90;;;;;;5069462;28;20173;-69
2023/04/07 04:16:08;;;;;;;15.02;10.73;;;10.10;99.90;;;;;;5060540;28;20201;-69
2023/04/07 04:18:33;;;;;;;13.87;10.17;;;10.10;99.90;;;;;;5113348;27;20271;-69
2023/04/07 04:21:01;;;;;;;14.33;10.17;;;10.10;99.90;;;;;;5087929;28;20249;-69
2023/04/07 04:23:27;;;;;;;16.53;10.93;;;10.10;99.90;;;;;;5079341;28;20196;-70
2023/04/07 04:25:55;;;;;;;21.00;13.43;;;10.10;99.90;;;;;;5075709;28;20348;-71
2023/04/07 04:28:26;;;;;;;18.73;13.27;;;10.10;99.90;;;;;;5094450;28;20200;-70
2023/04/07 04:30:51;;;;;;;18.17;12.17;;;10.00;99.90;;;;;;5078923;28;20176;-71
2023/04/07 04:33:19;;;;;;;19.87;13.97;;;10.00;99.90;;;;;;5078716;28;20183;-70
2023/04/07 04:35:48;;;;;;;18.80;13.20;;;10.00;99.90;;;;;;5075000;28;20210;-70
2023/04/07 04:38:15;;;;;;;17.97;12.47;;;10.00;99.90;;;;;;5104272;28;20196;-70
2023/04/07 04:40:41;;;;;;;18.37;12.33;;;9.90;99.90;;;;;;5071320;28;20271;-70
2023/04/07 04:43:09;;;;;;;17.97;12.97;;;9.90;99.90;;;;;;5076643;28;20210;-69
2023/04/07 04:45:35;;;;;;;17.40;12.27;;;9.90;99.90;;;;;;5089959;28;20254;-70
2023/04/07 04:48:03;;;;;;;17.47;12.43;;;9.80;99.90;;;;;;5078471;28;20278;-69
2023/04/07 04:50:31;;;;;;;19.57;13.53;;;9.80;99.90;;;;;;5083660;28;20221;-69
2023/04/07 04:52:57;;;;;;;16.70;11.97;;;9.90;99.90;;;;;;5078268;28;20267;-69
2023/04/07 04:55:22;;;;;;;17.83;12.17;;;9.80;99.90;;;;;;5082250;28;20251;-68
2023/04/07 04:57:50;;;;;;;15.93;12.07;;;9.70;99.90;;;;;;5076661;28;20207;-69
2023/04/07 05:00:16;;;;;;;16.70;12.30;;;9.80;99.90;;;;;;5078481;28;20182;-69
2023/04/07 05:02:45;;;;;;;18.13;12.23;;;9.80;99.90;;;;;;5077518;28;20168;-69
2023/04/07 05:05:11;;;;;;;16.57;11.50;;;9.80;99.90;;;;;;5077914;28;20202;-70
2023/04/07 05:07:39;;;;;;;15.73;12.10;;;9.80;99.90;;;;;;5073475;28;20188;-70
2023/04/07 05:10:10;;;;;;;18.80;12.60;;;9.70;99.90;;;;;;5068134;28;20199;-69
2023/04/07 05:12:36;;;;;;;16.50;11.90;;;9.70;99.90;;;;;;5078180;28;20271;-70
2023/04/07 05:15:01;;;;;;;17.70;12.53;;;9.70;99.90;;;;;;5081190;28;20286;-70
2023/04/07 05:17:27;;;;;;;17.10;12.23;;;9.70;99.90;;;;;;5093443;28;20231;-71
2023/04/07 05:19:57;;;;;;;16.57;12.00;;;9.80;99.90;;;;;;5068644;28;20180;-71
2023/04/07 05:22:23;;;;;;;16.80;11.57;;;9.70;99.90;;;;;;5075451;28;20186;-71
2023/04/07 05:24:49;;;;;;;20.60;13.67;;;9.70;99.90;;;;;;5077299;28;20208;-71
2023/04/07 05:27:14;;;;;;;19.73;13.80;;;9.70;99.90;;;;;;5076311;28;20183;-73
2023/04/07 05:29:40;;;;;;;18.87;13.77;;;9.60;99.90;;;;;;5072042;28;20278;-72
2023/04/07 05:32:06;;;;;;;19.50;13.07;;;9.70;99.90;;;;;;5077519;28;20176;-69
2023/04/07 05:34:31;;;;;;;17.70;12.93;;;9.70;99.90;;;;;;5092325;28;20184;-70
2023/04/07 05:36:59;;;;;;;18.13;12.20;;;9.60;99.90;;;;;;5103570;28;20278;-69
2023/04/07 05:39:25;;;;;;;18.70;12.03;;;9.50;99.90;;;;;;5075153;28;20283;-69
2023/04/07 05:41:51;;;;;;;16.60;11.80;;;9.60;99.90;;;;;;5102901;28;20198;-69
2023/04/07 05:44:17;;;;;;;16.57;11.70;;;9.60;99.90;;;;;;5080854;28;20203;-69
2023/04/07 05:46:42;;;;;;;17.33;12.03;;;9.50;99.90;;;;;;5098024;28;20191;-69
2023/04/07 05:49:08;;;;;;;18.90;12.27;;;9.60;99.90;;;;;;5098528;28;20218;-69
2023/04/07 05:51:36;;;;;;;17.53;12.03;;;9.70;99.90;;;;;;5076813;28;20329;-68
2023/04/07 05:54:05;;;;;;;20.93;13.40;;;9.50;99.90;;;;;;5101452;28;20279;-68
2023/04/07 05:56:30;;;;;;;18.50;13.10;;;9.50;99.90;;;;;;5105434;28;20180;-68
2023/04/07 05:58:59;;;;;;;17.83;12.23;;;9.50;99.90;;;;;;5103840;28;20172;-70
2023/04/07 06:01:26;;;;;;;17.27;12.20;;;9.50;99.90;;;;;;5076272;28;20175;-68
2023/04/07 06:03:54;;;;;;;15.60;11.80;;;9.50;99.90;;;;;;5074856;28;20290;-68
2023/04/07 06:06:22;;;;;;;16.60;12.13;;;9.50;99.90;;;;;;5070724;28;20195;-68
2023/04/07 06:08:50;;;;;;;17.13;11.97;;;9.50;99.90;;;;;;5102604;28;20210;-68
2023/04/07 06:11:18;;;;;;;17.97;11.80;;;9.50;99.90;;;;;;5076325;28;20203;-68
2023/04/07 06:13:43;;;;;;;17.40;11.50;;;9.50;99.90;;;;;;5096190;28;20184;-67
2023/04/07 06:16:11;;;;;;;17.07;11.37;;;9.50;99.90;;;;;;5083821;28;20171;-68
2023/04/07 06:18:37;;;;;;;16.93;11.57;;;9.50;99.90;;;;;;5079080;28;20195;-67
2023/04/07 06:21:03;;;;;;;15.40;10.80;;;9.50;99.90;;;;;;5078125;28;20321;-68
2023/04/07 06:23:28;;;;;;;14.87;10.80;;;9.50;99.90;;;;;;5077026;28;20184;-67
2023/04/07 06:25:54;;;;;;;21.57;12.40;;;9.50;99.90;;;;;;5075674;28;20199;-67
2023/04/07 06:28:22;;;;;;;18.13;11.83;;;9.50;99.90;;;;;;5085221;28;20204;-67
2023/04/07 06:30:48;;;;;;;15.77;11.37;;;9.50;99.90;;;;;;5092618;28;20277;-67
2023/04/07 06:33:18;;;;;;;18.83;12.10;;;9.50;99.90;;;;;;5076501;28;20176;-67
2023/04/07 06:35:44;;;;;;;16.00;11.27;;;9.60;99.90;;;;;;5080006;28;20206;-66
2023/04/07 06:38:12;;;;;;;16.73;11.20;;;9.50;99.90;;;;;;5068360;28;20204;-67
2023/04/07 06:40:37;;;;;;;13.97;10.67;;;9.60;99.90;;;;;;5093400;28;20204;-66
2023/04/07 06:43:03;;;;;;;15.50;10.23;;;9.60;99.90;;;;;;5076733;28;20245;-67
2023/04/07 06:45:28;;;;;;;15.30;10.70;;;9.60;99.90;;;;;;5097620;28;20203;-67
2023/04/07 06:47:54;;;;;;;14.20;10.57;;;9.70;99.90;;;;;;5076750;28;20214;-67
2023/04/07 06:50:21;;;;;;;15.73;11.03;;;9.60;99.90;;;;;;5082579;28;20235;-67
2023/04/07 06:52:49;;;;;;;15.80;10.67;;;9.70;99.90;;;;;;5085258;28;20176;-67
2023/04/07 06:55:15;;;;;;;16.27;11.27;;;9.60;99.90;;;;;;5099089;28;20175;-67
2023/04/07 06:57:40;;;;;;;18.27;13.07;;;9.70;99.90;;;;;;5094893;28;20314;-67
2023/04/07 07:00:07;;;;;;;23.40;14.47;;;9.60;99.90;;;;;;5064448;28;20266;-67
2023/04/07 07:02:33;;;;;;;17.37;12.27;;;9.60;99.90;;;;;;5089302;28;20243;-67
2023/04/07 07:05:03;;;;;;;18.37;12.40;;;9.60;99.90;;;;;;5096724;28;20199;-67
2023/04/07 07:07:28;;;;;;;14.80;10.23;;;9.60;99.90;;;;;;5098954;28;20180;-67
2023/04/07 07:09:54;;;;;;;15.43;10.47;;;9.60;99.90;;;;;;5078453;28;20223;-66
2023/04/07 07:12:21;;;;;;;14.70;10.50;;;9.50;99.90;;;;;;5092285;28;20194;-67
2023/04/07 07:14:49;;;;;;;14.27;9.50;;;9.60;99.90;;;;;;5064903;28;20178;-67
2023/04/07 07:17:15;;;;;;;15.73;10.57;;;9.60;99.90;;;;;;5108581;28;20195;-67
2023/04/07 07:19:43;;;;;;;16.00;11.03;;;9.60;99.90;;;;;;5077812;28;20211;-67
2023/04/07 07:22:11;;;;;;;14.87;10.73;;;9.60;99.90;;;;;;5069393;28;20183;-67
2023/04/07 07:24:36;;;;;;;16.23;11.53;;;9.50;99.90;;;;;;5080342;28;20211;-67
2023/04/07 07:27:04;;;;;;;18.07;10.43;;;9.50;99.90;;;;;;5095336;28;20163;-66
2023/04/07 07:29:30;;;;;;;14.03;9.57;;;9.50;99.90;;;;;;5079421;28;20196;-67
2023/04/07 07:31:56;;;;;;;14.73;10.07;;;9.50;99.90;;;;;;5078616;28;20203;-67
2023/04/07 07:34:21;;;;;;;14.30;9.87;;;9.50;99.90;;;;;;5071588;28;20172;-66
2023/04/07 07:36:47;;;;;;;15.07;11.10;;;9.50;99.90;;;;;;5078556;28;20186;-67
2023/04/07 07:39:13;;;;;;;14.70;10.53;;;9.50;99.90;;;;;;5079286;28;20234;-67
2023/04/07 07:41:41;;;;;;;14.13;9.63;;;9.60;99.90;;;;;;5061595;28;20240;-67
2023/04/07 07:44:06;;;;;;;15.23;9.63;;;9.60;99.90;;;;;;5088314;28;20267;-67
2023/04/07 07:46:32;;;;;;;14.63;9.93;;;9.60;99.90;;;;;;5080206;28;20241;-67
2023/04/07 07:48:58;;;;;;;13.53;9.63;;;9.60;99.90;;;;;;5075527;28;20195;-67
2023/04/07 07:51:23;;;;;;;15.53;10.20;;;9.60;99.90;;;;;;5077193;28;20195;-66
2023/04/07 07:53:51;;;;;;;14.77;10.30;;;9.60;99.90;;;;;;5079590;28;20172;-66
2023/04/07 07:56:19;;;;;;;13.47;9.20;;;9.60;99.90;;;;;;5068410;28;20208;-67
2023/04/07 07:58:45;;;;;;;13.80;9.73;;;9.70;99.90;;;;;;5080829;28;20195;-68
2023/04/07 08:01:12;;;;;;;13.23;9.20;;;9.60;99.90;;;;;;5076747;28;20177;-67
2023/04/07 08:03:40;;;;;;;12.57;8.90;;;9.60;99.90;;;;;;5087914;28;20203;-67
2023/04/07 08:06:08;;;;;;;12.07;8.63;;;9.70;99.90;;;;;;5089383;28;20178;-67
2023/04/07 08:08:34;;;;;;;9.73;7.13;;;9.70;99.90;;;;;;5109946;27;20199;-67
2023/04/07 08:11:00;;;;;;;9.17;6.50;;;9.70;99.90;;;;;;5089656;28;20206;-67
2023/04/07 08:13:26;;;;;;;10.87;6.77;;;9.70;99.90;;;;;;5086601;28;20164;-68
2023/04/07 08:15:54;;;;;;;11.20;6.33;;;9.80;99.90;;;;;;5082435;28;20168;-68
2023/04/07 08:18:19;;;;;;;8.03;6.10;;;9.70;99.90;;;;;;5079290;28;20340;-69
2023/04/07 08:20:47;;;;;;;10.30;6.47;;;9.80;99.90;;;;;;5077028;28;20171;-67
2023/04/07 08:23:15;;;;;;;9.33;6.50;;;9.90;99.90;;;;;;5078771;28;20172;-69
2023/04/07 08:25:41;;;;;;;8.47;5.67;;;9.80;99.90;;;;;;5093813;28;20196;-69
2023/04/07 08:28:06;;;;;;;11.90;7.00;;;9.80;99.90;;;;;;5079781;28;20172;-68
2023/04/07 08:30:32;;;;;;;9.03;6.50;;;9.90;99.90;;;;;;5071511;28;20157;-68
2023/04/07 08:32:58;;;;;;;9.07;6.43;;;9.90;99.90;;;;;;5109900;28;20183;-70
2023/04/07 08:35:25;;;;;;;6.90;4.97;;;9.90;99.90;;;;;;5075896;28;20175;-68
2023/04/07 08:37:51;;;;;;;8.20;5.10;;;9.90;99.90;;;;;;5094031;28;20188;-68
2023/04/07 08:40:19;;;;;;;7.82;5.00;;;10.00;99.90;;;;;;5093478;28;20181;-67
2023/04/07 08:42:47;;;;;;;6.35;4.65;;;10.00;99.90;;;;;;5084351;28;20429;-68
2023/04/07 08:45:15;;;;;;;7.07;4.43;;;10.00;99.90;;;;;;5079074;28;20195;-68
2023/04/07 08:47:45;;;;;;;5.20;3.97;;;10.10;99.90;;;;;;5078999;28;20224;-68
2023/04/07 08:50:13;;;;;;;5.75;4.10;;;10.10;99.90;;;;;;5097767;28;20215;-69
2023/04/07 08:52:48;;;;;;;5.75;3.55;;;10.10;99.90;;;;;;5083844;28;20206;-69
2023/04/07 08:55:16;;;;;;;4.70;3.60;;;10.20;99.90;;;;;;5084039;28;20179;-69
2023/04/07 08:57:42;;;;;;;4.85;3.13;;;10.10;99.90;;;;;;5075423;28;20176;-69
2023/04/07 09:00:09;;;;;;;5.85;3.80;;;10.20;99.90;;;;;;5085844;28;20172;-69
2023/04/07 09:02:38;;;;;;;4.03;3.30;;;10.20;99.90;;;;;;5078643;28;20191;-68
2023/04/07 09:05:07;;;;;;;4.17;2.93;;;10.30;99.90;;;;;;5084992;28;20215;-69
2023/04/07 09:07:35;;;;;;;4.40;3.08;;;10.30;99.90;;;;;;5094882;28;20203;-68
2023/04/07 09:10:01;;;;;;;4.22;2.97;;;10.30;99.90;;;;;;5076256;28;20204;-68
2023/04/07 09:12:28;;;;;;;3.85;2.90;;;10.30;99.90;;;;;;5086459;28;20202;-68
2023/04/07 09:14:54;;;;;;;3.60;2.63;;;10.30;99.90;;;;;;5074579;28;20242;-68
2023/04/07 09:17:20;;;;;;;4.65;3.67;;;10.30;99.90;;;;;;5076825;28;20172;-69
2023/04/07 09:19:52;;;;;;;5.60;3.88;;;10.30;99.90;;;;;;5099659;28;20181;-68
2023/04/07 09:22:42;;;;;;;5.97;3.97;;;10.30;99.90;;;;;;5083244;28;20206;-68
2023/04/07 09:25:13;;;;;;;8.05;3.97;;;10.30;99.90;;;;;;5064321;28;20227;-68
2023/04/07 09:27:39;;;;;;;5.30;3.80;;;10.30;99.90;;;;;;5090358;28;20180;-68
2023/04/07 09:30:16;;;;;;;6.57;4.40;;;10.30;99.90;;;;;;5095417;28;20359;-69
2023/04/07 09:32:42;;;;;;;6.23;4.23;;;10.20;99.90;;;;;;5093616;28;20219;-68
2023/04/07 09:35:08;;;;;;;6.35;4.20;;;10.20;99.90;;;;;;5108525;27;20171;-68
2023/04/07 09:37:33;;;;;;;5.53;4.20;;;10.20;99.90;;;;;;5086282;28;20203;-68
2023/04/07 09:40:00;;;;;;;5.33;4.27;;;10.20;99.90;;;;;;5090782;28;20179;-68
2023/04/07 09:42:31;;;;;;;4.80;3.60;;;10.20;99.90;;;;;;5078263;28;20176;-68
2023/04/07 09:44:59;;;;;;;5.32;3.97;;;10.20;99.90;;;;;;5121607;27;20200;-67
2023/04/07 09:47:32;;;;;;;4.82;3.90;;;10.30;99.90;;;;;;5074594;28;20235;-68
2023/04/07 09:50:05;;;;;;;5.60;4.20;;;10.20;99.90;;;;;;5058237;28;20204;-68
2023/04/07 09:53:01;;;;;;;6.83;4.10;;;10.30;99.90;;;;;;5080450;28;20255;-68
2023/04/07 09:55:27;;;;;;;7.25;4.22;;;10.30;99.90;;;;;;5066312;28;20265;-67
2023/04/07 09:57:54;;;;;;;6.88;4.55;;;10.30;99.90;;;;;;5077243;28;20250;-67
2023/04/07 10:00:20;;;;;;;6.55;4.25;;;10.50;99.90;;;;;;5072739;28;20282;-67
2023/04/07 10:02:51;;;;;;;5.82;3.92;;;10.40;99.90;;;;;;5077333;28;20283;-67
2023/04/07 10:05:20;;;;;;;5.93;4.10;;;10.50;99.90;;;;;;5077616;28;20196;-68
2023/04/07 10:07:50;;;;;;;5.15;3.70;;;10.40;99.90;;;;;;5070754;28;20176;-68
2023/04/07 10:10:16;;;;;;;6.20;4.18;;;10.50;99.90;;;;;;5079004;28;20195;-67
2023/04/07 10:12:42;;;;;;;6.10;4.40;;;10.50;99.90;;;;;;5069245;28;20233;-68
2023/04/07 10:15:09;;;;;;;9.48;5.25;;;10.60;99.90;;;;;;5062667;28;20187;-68
2023/04/07 10:17:38;;;;;;;8.95;4.93;;;10.60;99.90;;;;;;5082669;28;20223;-68
2023/04/07 10:20:25;;;;;;;8.10;5.30;;;10.60;99.90;;;;;;5088808;28;20179;-67
2023/04/07 10:22:52;;;;;;;7.95;5.07;;;10.60;99.90;;;;;;5072358;28;20185;-68
2023/04/07 10:25:26;;;;;;;8.45;5.57;;;10.60;99.90;;;;;;5076328;28;20216;-67
2023/04/07 10:27:59;;;;;;;8.55;6.20;;;10.70;99.90;;;;;;5080065;28;20250;-68
2023/04/07 10:30:28;;;;;;;7.07;5.00;;;10.60;99.90;;;;;;5096499;28;20259;-67
2023/04/07 10:32:57;;;;;;;8.10;6.10;;;10.60;99.90;;;;;;5081104;28;20195;-67
2023/04/07 10:35:25;;;;;;;9.95;6.82;;;10.70;99.90;;;;;;5080292;28;20267;-68
2023/04/07 10:38:06;;;;;;;9.65;6.80;;;10.60;99.90;;;;;;5074951;28;20181;-67
2023/04/07 10:40:33;;;;;;;10.40;6.30;;;10.70;99.90;;;;;;5102545;28;20201;-67
2023/04/07 10:43:01;;;;;;;7.65;5.50;;;10.70;99.90;;;;;;5081502;28;20172;-68
2023/04/07 10:45:55;;;;;;;8.43;5.55;;;10.70;99.90;;;;;;5078196;28;20192;-68
2023/04/07 10:48:21;;;;;;;5.97;4.57;;;10.70;99.90;;;;;;5070278;28;20196;-69
2023/04/07 10:51:14;;;;;;;5.35;4.18;;;10.70;99.90;;;;;;5080983;28;20481;-68
2023/04/07 10:54:21;;;;;;;6.28;4.40;;;10.80;99.90;;;;;;5075018;28;20238;-68
2023/04/07 10:57:02;;;;;;;5.53;3.92;;;10.80;99.90;;;;;;5077071;28;20183;-67
2023/04/07 10:59:29;;;;;;;4.82;3.88;;;10.80;99.90;;;;;;5075934;28;20181;-67
2023/04/07 11:02:13;;;;;;;5.80;4.13;;;10.90;99.90;;;;;;5071959;28;20176;-68
2023/04/07 11:04:44;;;;;;;5.82;4.63;;;10.90;99.90;;;;;;5080743;28;20189;-67
2023/04/07 11:07:15;;;;;;;6.65;4.60;;;11.00;99.90;;;;;;5097317;28;20200;-69
2023/04/07 11:09:41;;;;;;;7.75;5.63;;;10.90;99.90;;;;;;5085110;28;20211;-67
2023/04/07 11:12:20;;;;;;;9.85;6.18;;;10.90;99.90;;;;;;5080189;28;20168;-66
2023/04/07 11:14:46;;;;;;;7.95;6.20;;;11.00;99.90;;;;;;5093650;28;20192;-68
2023/04/07 11:17:16;;;;;;;8.73;6.05;;;11.00;99.90;;;;;;5079355;28;20178;-67
2023/04/07 11:19:52;;;;;;;9.88;6.38;;;11.00;99.90;;;;;;5072772;28;20204;-66
2023/04/07 11:22:17;;;;;;;10.07;6.70;;;10.90;99.90;;;;;;5080085;28;20182;-66
2023/04/07 11:24:45;;;;;;;11.13;6.70;;;10.90;99.90;;;;;;5076247;28;20180;-64
2023/04/07 11:27:14;;;;;;;10.50;7.35;;;10.90;99.90;;;;;;5081443;28;20202;-65
2023/04/07 11:29:43;;;;;;;11.07;7.50;;;11.00;99.90;;;;;;5086237;28;20225;-65
2023/04/07 11:32:09;;;;;;;9.38;6.75;;;11.00;99.90;;;;;;5080100;28;20211;-66
2023/04/07 11:34:35;;;;;;;10.35;6.57;;;10.90;99.90;;;;;;5079026;28;20214;-65
2023/04/07 11:37:25;;;;;;;9.88;6.88;;;10.90;99.90;;;;;;5089509;28;20180;-69
2023/04/07 11:39:57;;;;;;;8.60;6.53;;;10.90;99.90;;;;;;5095742;28;20191;-69
2023/04/07 11:42:37;;;;;;;8.40;6.15;;;10.90;99.90;;;;;;5063491;28;20192;-66
2023/04/07 11:45:18;;;;;;;10.88;6.88;;;10.90;99.90;;;;;;5069184;28;20177;-72
2023/04/07 11:47:44;;;;;;;9.02;6.70;;;11.00;99.90;;;;;;5110917;27;20202;-68
2023/04/07 11:50:09;;;;;;;9.45;7.20;;;11.10;99.90;;;;;;5078552;28;20200;-68
2023/04/07 11:52:42;;;;;;;12.30;8.13;;;11.00;99.90;;;;;;5082687;28;20179;-69
2023/04/07 11:55:25;;;;;;;10.93;7.68;;;11.10;99.90;;;;;;5075003;28;20173;-69
2023/04/07 11:57:51;;;;;;;10.50;7.78;;;11.10;99.90;;;;;;5081849;28;20171;-67
2023/04/07 12:00:18;;;;;;;11.85;8.68;;;11.10;99.90;;;;;;5090743;28;20191;-69
2023/04/07 12:02:46;;;;;;;13.23;8.50;;;11.20;99.90;;;;;;5096966;28;20184;-67
2023/04/07 12:05:12;;;;;;;12.70;8.57;;;11.20;99.90;;;;;;5083860;28;20171;-66
2023/04/07 12:07:39;;;;;;;11.68;8.52;;;11.20;99.90;;;;;;5079575;28;20180;-68
2023/04/07 12:10:22;;;;;;;11.68;9.02;;;11.20;99.90;;;;;;5079479;28;20199;-69
2023/04/07 12:12:48;;;;;;;13.43;9.32;;;11.20;99.90;;;;;;5069006;28;20172;-68
2023/04/07 12:15:14;;;;;;;14.95;9.68;;;11.20;99.90;;;;;;5093209;28;20192;-67
2023/04/07 12:17:46;;;;;;;13.90;9.65;;;11.30;99.90;;;;;;5071411;28;20182;-69
2023/04/07 12:20:12;;;;;;;13.88;9.10;;;11.20;99.90;;;;;;5094774;28;20176;-68
2023/04/07 12:22:37;;;;;;;11.85;8.30;;;11.20;99.90;;;;;;5070462;28;20199;-69
2023/04/07 12:25:05;;;;;;;12.40;8.00;;;11.20;99.90;;;;;;5080727;28;20194;-69
2023/04/07 12:27:33;;;;;;;12.18;7.88;;;11.20;99.90;;;;;;5078060;28;20218;-69
2023/04/07 12:30:03;;;;;;;10.55;7.75;;;11.20;99.90;;;;;;5076884;28;20211;-70
2023/04/07 12:32:34;;;;;;;10.82;7.65;;;11.30;99.90;;;;;;5071498;28;20176;-69
2023/04/07 12:35:02;;;;;;;11.77;7.63;;;11.30;99.90;;;;;;5078825;28;20175;-69
2023/04/07 12:37:28;;;;;;;12.57;8.80;;;11.30;99.90;;;;;;5069930;28;20242;-69
2023/04/07 12:39:56;;;;;;;11.68;8.38;;;11.30;99.90;;;;;;5077604;28;20175;-68
2023/04/07 12:42:23;;;;;;;13.00;8.98;;;11.30;99.90;;;;;;5093830;28;20184;-69
2023/04/07 12:44:49;;;;;;;11.88;8.55;;;11.30;99.90;;;;;;5080510;28;20199;-69
2023/04/07 12:47:15;;;;;;;14.02;8.13;;;11.40;99.90;;;;;;5093369;28;20195;-69
2023/04/07 12:49:40;;;;;;;12.30;9.40;;;11.40;99.90;;;;;;5097218;28;20226;-70